createdAt,value
2023-04-21T00:02:00.913Z,51.35
2023-04-21T00:04:29.789Z,51.83
2023-04-21T00:06:58.532Z,51.70
2023-04-21T00:09:27.994Z,52.53
2023-04-21T00:11:56.347Z,50.67
2023-04-21T00:14:24.310Z,47.42
2023-04-21T00:16:53.373Z,50.13
2023-04-21T00:19:21.662Z,49.20
2023-04-21T00:21:49.532Z,50.30
2023-04-21T00:24:17.460Z,49.28
2023-04-21T00:26:46.668Z,47.90
2023-04-21T00:29:14.613Z,47.97
2023-04-21T00:31:42.545Z,46.35
2023-04-21T00:34:10.798Z,44.40
2023-04-21T00:36:38.617Z,45.50
2023-04-21T00:39:07.183Z,46.42
2023-04-21T00:41:38.624Z,43.47
2023-04-21T00:44:08.976Z,43.42
2023-04-21T00:46:38.632Z,41.00
2023-04-21T00:49:08.487Z,43.38
2023-04-21T00:51:38.581Z,43.97
2023-04-21T00:54:10.454Z,41.78
2023-04-21T00:56:38.253Z,39.92
2023-04-21T00:59:07.750Z,39.17
2023-04-21T01:01:36.546Z,40.40
2023-04-21T01:04:05.954Z,42.25
2023-04-21T01:06:34.696Z,38.67
2023-04-21T01:09:05.284Z,38.15
2023-04-21T01:11:33.295Z,40.28
2023-04-21T01:14:01.547Z,39.40
2023-04-21T01:16:32.636Z,39.40
2023-04-21T01:19:01.382Z,40.92
2023-04-21T01:21:32.109Z,40.47
2023-04-21T01:24:03.838Z,39.00
2023-04-21T01:26:31.633Z,38.80
2023-04-21T01:28:59.451Z,36.97
2023-04-21T01:31:29.258Z,37.75
2023-04-21T01:33:57.113Z,36.47
2023-04-21T01:36:24.971Z,36.22
2023-04-21T01:38:53.530Z,38.15
2023-04-21T01:41:24.888Z,38.33
2023-04-21T01:43:55.510Z,38.33
2023-04-21T01:46:25.341Z,38.40
2023-04-21T01:48:53.348Z,41.83
2023-04-21T01:51:21.158Z,39.67
2023-04-21T01:53:48.942Z,39.47
2023-04-21T01:56:18.908Z,39.17
2023-04-21T01:58:48.362Z,36.88
2023-04-21T02:01:16.326Z,38.67
2023-04-21T02:03:44.292Z,37.63
2023-04-21T02:06:13.994Z,38.08
2023-04-21T02:08:41.814Z,36.90
2023-04-21T02:11:09.800Z,35.85
2023-04-21T02:13:37.653Z,37.90
2023-04-21T02:16:13.321Z,38.05
2023-04-21T02:18:42.403Z,38.08
2023-04-21T02:21:10.241Z,37.58
2023-04-21T02:23:38.038Z,37.88
2023-04-21T02:26:06.380Z,40.47
2023-04-21T02:28:34.189Z,37.03
2023-04-21T02:31:02.137Z,37.78
2023-04-21T02:33:31.442Z,36.90
2023-04-21T02:35:59.397Z,37.60
2023-04-21T02:38:27.299Z,37.83
2023-04-21T02:40:55.167Z,38.55
2023-04-21T02:43:22.991Z,37.40
2023-04-21T02:45:50.886Z,38.78
2023-04-21T02:48:22.912Z,36.30
2023-04-21T02:50:54.022Z,41.55
2023-04-21T02:53:21.976Z,42.53
2023-04-21T02:55:49.808Z,36.78
2023-04-21T02:58:17.687Z,39.05
2023-04-21T03:00:45.918Z,39.08
2023-04-21T03:03:13.900Z,35.72
2023-04-21T03:05:43.575Z,39.40
2023-04-21T03:08:12.778Z,39.47
2023-04-21T03:10:40.778Z,42.92
2023-04-21T03:13:08.592Z,44.03
2023-04-21T03:15:36.435Z,42.17
2023-04-21T03:18:04.303Z,42.33
2023-04-21T03:20:32.138Z,46.13
2023-04-21T03:22:59.969Z,44.58
2023-04-21T03:25:29.508Z,40.33
2023-04-21T03:27:57.645Z,40.80
2023-04-21T03:30:26.968Z,41.93
2023-04-21T03:32:55.743Z,39.85
2023-04-21T03:35:23.723Z,43.33
2023-04-21T03:37:51.810Z,42.88
2023-04-21T03:40:19.791Z,45.55
2023-04-21T03:42:48.970Z,42.58
2023-04-21T03:45:19.526Z,44.50
2023-04-21T03:47:47.372Z,42.88
2023-04-21T03:50:15.394Z,43.92
2023-04-21T03:52:43.178Z,39.85
2023-04-21T03:55:12.071Z,41.97
2023-04-21T03:57:41.277Z,41.80
2023-04-21T04:00:11.670Z,42.28
2023-04-21T04:02:43.823Z,40.03
2023-04-21T04:05:11.892Z,40.55
2023-04-21T04:07:39.694Z,38.20
2023-04-21T04:10:07.839Z,38.40
2023-04-21T04:12:35.635Z,39.08
2023-04-21T04:15:03.732Z,37.95
2023-04-21T04:17:32.972Z,38.95
2023-04-21T04:20:01.828Z,38.10
2023-04-21T04:22:29.663Z,39.33
2023-04-21T04:24:59.840Z,36.72
2023-04-21T04:27:29.526Z,35.95
2023-04-21T04:29:57.670Z,36.63
2023-04-21T04:32:28.615Z,37.15
2023-04-21T04:34:58.868Z,37.38
2023-04-21T04:37:26.763Z,38.15
2023-04-21T04:39:54.602Z,39.85
2023-04-21T04:42:22.448Z,35.42
2023-04-21T04:44:50.569Z,37.30
2023-04-21T04:47:18.340Z,34.28
2023-04-21T04:49:46.183Z,34.60
2023-04-21T04:52:15.514Z,36.72
2023-04-21T04:54:43.416Z,37.70
2023-04-21T04:57:11.228Z,38.00
2023-04-21T04:59:39.128Z,37.30
2023-04-21T05:02:08.581Z,43.42
2023-04-21T05:04:36.671Z,36.58
2023-04-21T05:07:06.063Z,36.50
2023-04-21T05:09:35.872Z,36.45
2023-04-21T05:12:04.025Z,36.25
2023-04-21T05:14:31.780Z,37.17
2023-04-21T05:16:59.671Z,35.53
2023-04-21T05:19:27.578Z,35.65
2023-04-21T05:22:00.693Z,34.10
2023-04-21T05:24:28.910Z,34.00
2023-04-21T05:26:58.141Z,34.47
2023-04-21T05:29:26.045Z,33.92
2023-04-21T05:31:53.950Z,34.47
2023-04-21T05:34:22.154Z,34.17
2023-04-21T05:36:50.091Z,36.70
2023-04-21T05:39:18.159Z,33.00
2023-04-21T05:41:46.094Z,32.92
2023-04-21T05:44:17.678Z,33.55
2023-04-21T05:46:45.956Z,33.05
2023-04-21T05:49:13.981Z,32.55
2023-04-21T05:51:42.378Z,30.17
2023-04-21T05:54:10.220Z,32.55
2023-04-21T05:56:38.314Z,30.52
2023-04-21T05:59:06.902Z,33.03
2023-04-21T06:01:37.474Z,30.70
2023-04-21T06:04:05.624Z,29.63
2023-04-21T06:06:33.849Z,29.27
2023-04-21T06:09:01.989Z,31.77
2023-04-21T06:11:29.730Z,30.65
2023-04-21T06:13:59.468Z,29.17
2023-04-21T06:16:27.913Z,30.10
2023-04-21T06:18:58.901Z,27.50
2023-04-21T06:21:26.895Z,27.80
2023-04-21T06:23:54.750Z,25.85
2023-04-21T06:26:22.732Z,25.05
2023-04-21T06:28:50.657Z,24.98
2023-04-21T06:31:19.816Z,27.38
2023-04-21T06:33:47.807Z,24.40
2023-04-21T06:36:18.102Z,23.05
2023-04-21T06:38:46.348Z,23.67
2023-04-21T06:41:14.104Z,23.15
2023-04-21T06:43:42.095Z,22.75
2023-04-21T06:46:09.936Z,23.38
2023-04-21T06:48:37.694Z,22.42
2023-04-21T06:51:05.804Z,22.00
2023-04-21T06:53:35.183Z,26.52
2023-04-21T06:56:03.060Z,20.83
2023-04-21T06:58:30.826Z,24.08
2023-04-21T07:00:58.659Z,20.40
2023-04-21T07:03:26.579Z,23.50
2023-04-21T07:05:54.518Z,23.08
2023-04-21T07:08:22.366Z,21.05
2023-04-21T07:10:51.530Z,22.23
2023-04-21T07:13:19.569Z,21.30
2023-04-21T07:15:47.534Z,19.92
2023-04-21T07:18:15.481Z,24.92
2023-04-21T07:20:43.425Z,28.27
2023-04-21T07:23:11.251Z,18.77
2023-04-21T07:25:39.153Z,18.23
2023-04-21T07:28:08.295Z,18.95
2023-04-21T07:33:05.114Z,19.80
2023-04-21T07:35:32.927Z,19.05
2023-04-21T07:38:00.761Z,18.25
2023-04-21T07:40:28.799Z,20.80
2023-04-21T07:42:56.792Z,20.30
2023-04-21T07:45:26.427Z,19.40
2023-04-21T07:47:54.762Z,18.92
2023-04-21T07:50:22.590Z,18.55
2023-04-21T07:52:50.596Z,18.02
2023-04-21T07:55:18.510Z,17.48
2023-04-21T07:57:46.336Z,16.05
2023-04-21T08:00:15.872Z,15.93
2023-04-21T08:02:45.087Z,16.27
2023-04-21T08:05:13.316Z,15.53
2023-04-21T08:07:41.143Z,15.82
2023-04-21T08:10:10.326Z,15.10
2023-04-21T08:12:40.169Z,14.55
2023-04-21T08:15:08.813Z,16.67
2023-04-21T08:17:36.642Z,14.48
2023-04-21T08:20:06.988Z,23.50
2023-04-21T08:25:03.882Z,16.92
2023-04-21T08:27:31.633Z,18.95
2023-04-21T08:30:00.228Z,14.95
2023-04-21T08:32:28.106Z,15.25
2023-04-21T08:34:56.163Z,15.20
2023-04-21T08:37:25.667Z,17.50
2023-04-21T08:39:54.434Z,16.77
2023-04-21T08:42:22.308Z,16.48
2023-04-21T08:44:50.287Z,16.80
2023-04-21T08:47:18.386Z,20.77
2023-04-21T08:49:46.383Z,17.15
2023-04-21T08:52:14.773Z,14.45
2023-04-21T08:54:44.236Z,15.98
2023-04-21T08:57:15.923Z,16.80
2023-04-21T08:59:46.083Z,13.38
2023-04-21T09:02:16.235Z,11.90
2023-04-21T09:04:46.444Z,11.13
2023-04-21T09:10:01.324Z,12.10
2023-04-21T09:12:30.412Z,13.55
2023-04-21T09:14:59.137Z,16.83
2023-04-21T09:17:32.659Z,13.30
2023-04-21T09:20:14.598Z,17.05
2023-04-21T09:22:42.551Z,13.30
2023-04-21T09:25:16.696Z,15.43
2023-04-21T09:27:45.061Z,10.73
2023-04-21T09:30:13.532Z,12.05
2023-04-21T09:32:41.766Z,16.30
2023-04-21T09:35:11.929Z,12.40
2023-04-21T09:37:40.334Z,12.93
2023-04-21T09:40:08.949Z,15.60
2023-04-21T09:42:39.632Z,16.55
2023-04-21T09:45:28.932Z,15.15
2023-04-21T09:48:00.441Z,13.48
2023-04-21T09:50:44.782Z,14.65
2023-04-21T09:53:22.807Z,11.57
2023-04-21T09:55:56.356Z,13.90
2023-04-21T09:58:29.148Z,14.07
2023-04-21T10:00:58.431Z,11.38
2023-04-21T10:03:28.860Z,16.45
2023-04-21T10:05:57.418Z,9.77
2023-04-21T10:08:25.284Z,11.73
2023-04-21T10:10:54.428Z,15.20
2023-04-21T10:13:23.434Z,9.13
2023-04-21T10:16:03.056Z,12.15
2023-04-21T10:18:30.957Z,9.70
2023-04-21T10:21:02.821Z,14.90
2023-04-21T10:23:32.154Z,15.43
2023-04-21T10:26:04.593Z,10.13
2023-04-21T10:28:41.244Z,13.75
2023-04-21T10:31:31.423Z,17.95
2023-04-21T10:34:30.466Z,9.32
2023-04-21T10:37:18.931Z,10.27
2023-04-21T10:39:53.761Z,12.02
2023-04-21T10:42:24.640Z,10.15
2023-04-21T10:44:54.644Z,13.32
2023-04-21T10:47:34.358Z,11.15
2023-04-21T10:50:13.179Z,12.13
2023-04-21T10:52:44.419Z,11.20
2023-04-21T10:55:13.322Z,7.90
2023-04-21T10:57:43.910Z,12.07
2023-04-21T11:00:15.605Z,9.80
2023-04-21T11:02:45.381Z,11.13
2023-04-21T11:05:14.084Z,13.60
2023-04-21T11:07:41.984Z,9.32
2023-04-21T11:10:11.383Z,8.38
2023-04-21T11:12:40.801Z,9.80
2023-04-21T11:15:10.761Z,10.53
2023-04-21T11:17:39.949Z,8.20
2023-04-21T11:20:10.533Z,9.30
2023-04-21T11:22:39.058Z,9.32
2023-04-21T11:25:17.505Z,8.55
2023-04-21T11:27:54.859Z,9.20
2023-04-21T11:30:23.277Z,6.38
2023-04-21T11:32:56.037Z,6.47
2023-04-21T11:35:25.905Z,7.22
2023-04-21T11:37:53.777Z,5.82
2023-04-21T11:40:23.059Z,5.10
2023-04-21T11:42:51.628Z,7.40
2023-04-21T11:45:22.427Z,11.38
2023-04-21T11:47:51.010Z,7.85
2023-04-21T11:50:33.191Z,5.93
2023-04-21T11:53:03.506Z,7.03
2023-04-21T11:55:31.395Z,6.30
2023-04-21T11:57:59.356Z,7.53
2023-04-21T12:00:31.921Z,4.82
2023-04-21T12:02:59.925Z,5.93
2023-04-21T12:05:37.958Z,5.00
2023-04-21T12:08:06.376Z,5.47
2023-04-21T12:10:34.323Z,5.40
2023-04-21T12:13:02.060Z,6.85
2023-04-21T12:15:32.140Z,6.50
2023-04-21T12:18:00.125Z,7.45
2023-04-21T12:20:31.166Z,5.28
2023-04-21T12:23:01.142Z,6.72
2023-04-21T12:25:29.248Z,6.30
2023-04-21T12:27:59.925Z,4.95
2023-04-21T12:30:27.893Z,6.75
2023-04-21T12:32:55.971Z,5.15
2023-04-21T12:35:23.976Z,5.43
2023-04-21T12:37:51.908Z,7.80
2023-04-21T12:40:21.171Z,4.43
2023-04-21T12:42:49.638Z,8.23
2023-04-21T12:45:17.590Z,5.90
2023-04-21T12:47:46.891Z,5.15
2023-04-21T12:50:15.197Z,4.63
2023-04-21T12:52:43.034Z,5.63
2023-04-21T12:55:13.342Z,13.73
2023-04-21T13:00:14.766Z,6.20
2023-04-21T13:02:42.838Z,6.60
2023-04-21T13:05:12.720Z,9.40
2023-04-21T13:07:41.563Z,5.88
2023-04-21T13:10:10.201Z,6.25
2023-04-21T13:12:38.367Z,3.33
2023-04-21T13:15:09.137Z,5.63
2023-04-21T13:17:37.079Z,6.47
2023-04-21T13:20:07.248Z,5.97
2023-04-21T13:25:04.523Z,6.05
2023-04-21T13:27:33.386Z,6.80
2023-04-21T13:30:01.407Z,3.42
2023-04-21T13:32:30.650Z,4.63
2023-04-21T13:34:58.480Z,4.35
2023-04-21T13:37:26.929Z,4.05
2023-04-21T13:39:54.722Z,3.47
2023-04-21T13:42:22.589Z,8.00
2023-04-21T13:44:50.481Z,4.57
2023-04-21T13:47:18.346Z,4.90
2023-04-21T13:49:47.530Z,6.90
2023-04-21T13:52:15.336Z,4.55
2023-04-21T13:54:43.283Z,5.05
2023-04-21T13:57:11.344Z,5.40
2023-04-21T13:59:39.445Z,5.63
2023-04-21T14:02:07.979Z,7.65
2023-04-21T14:04:36.556Z,5.13
2023-04-21T14:07:07.984Z,5.47
2023-04-21T14:09:36.030Z,5.03
2023-04-21T14:12:04.374Z,4.13
2023-04-21T14:17:05.665Z,4.68
2023-04-21T14:19:33.998Z,6.75
2023-04-21T14:22:02.112Z,4.20
2023-04-21T14:24:32.363Z,4.40
2023-04-21T14:27:01.103Z,4.70
2023-04-21T14:29:28.987Z,6.88
2023-04-21T14:31:58.605Z,4.80
2023-04-21T14:34:26.833Z,4.13
2023-04-21T14:36:55.195Z,4.53
2023-04-21T14:39:23.277Z,5.28
2023-04-21T14:41:53.338Z,6.35
2023-04-21T14:44:21.329Z,4.97
2023-04-21T14:47:01.008Z,5.78
2023-04-21T14:49:34.171Z,5.47
2023-04-21T14:52:03.533Z,4.28
2023-04-21T14:54:31.567Z,4.80
2023-04-21T14:57:17.422Z,5.50
2023-04-21T14:59:47.455Z,7.13
2023-04-21T15:02:15.665Z,6.25
2023-04-21T15:04:43.770Z,6.13
2023-04-21T15:07:11.767Z,7.40
2023-04-21T15:09:41.079Z,5.43
2023-04-21T15:12:12.717Z,4.60
2023-04-21T15:14:40.647Z,10.32
2023-04-21T15:17:08.715Z,4.95
2023-04-21T15:19:36.739Z,4.55
2023-04-21T15:22:05.804Z,5.47
2023-04-21T15:24:33.568Z,6.75
2023-04-21T15:27:02.245Z,5.28
2023-04-21T15:29:31.448Z,6.57
2023-04-21T15:31:59.298Z,5.18
2023-04-21T15:34:27.084Z,6.53
2023-04-21T15:36:54.922Z,4.68
2023-04-21T15:39:22.746Z,6.07
2023-04-21T15:41:50.800Z,7.32
2023-04-21T15:44:18.771Z,6.78
2023-04-21T15:46:48.229Z,5.15
2023-04-21T15:49:16.068Z,5.18
2023-04-21T15:51:44.080Z,5.43
2023-04-21T15:54:12.061Z,7.93
2023-04-21T15:56:40.311Z,7.90
2023-04-21T15:59:08.118Z,6.63
2023-04-21T16:01:36.092Z,6.75
2023-04-21T16:04:06.358Z,5.68
2023-04-21T16:09:03.314Z,6.50
2023-04-21T16:11:31.108Z,5.32
2023-04-21T16:13:59.074Z,6.28
2023-04-21T16:16:27.034Z,5.50
2023-04-21T16:18:55.094Z,6.05
2023-04-21T16:21:24.389Z,4.80
2023-04-21T16:23:52.262Z,5.28
2023-04-21T16:26:20.200Z,5.80
2023-04-21T16:28:48.140Z,4.40
2023-04-21T16:31:16.249Z,4.80
2023-04-21T16:33:44.069Z,6.22
2023-04-21T16:36:12.038Z,4.53
2023-04-21T16:38:41.268Z,5.13
2023-04-21T16:41:09.241Z,9.27
2023-04-21T16:43:37.387Z,9.50
2023-04-21T16:46:05.295Z,4.53
2023-04-21T16:48:33.257Z,5.78
2023-04-21T16:51:01.147Z,5.65
2023-04-21T16:53:29.011Z,7.45
2023-04-21T16:55:58.506Z,5.55
2023-04-21T16:58:26.458Z,4.15
2023-04-21T17:00:54.327Z,5.88
2023-04-21T17:03:22.590Z,5.30
2023-04-21T17:05:50.732Z,4.93
2023-04-21T17:08:18.597Z,7.90
2023-04-21T17:10:46.484Z,4.28
2023-04-21T17:13:15.615Z,6.03
2023-04-21T17:15:43.514Z,6.93
2023-04-21T17:18:11.523Z,5.68
2023-04-21T17:20:39.536Z,4.55
2023-04-21T17:23:07.500Z,7.85
2023-04-21T17:25:38.098Z,7.70
2023-04-21T17:28:06.437Z,8.13
2023-04-21T17:30:36.343Z,6.40
2023-04-21T17:33:16.121Z,5.65
2023-04-21T17:35:56.193Z,8.73
2023-04-21T17:38:29.871Z,9.70
2023-04-21T17:40:57.676Z,4.63
2023-04-21T17:43:25.566Z,5.68
2023-04-21T17:45:54.802Z,6.43
2023-04-21T17:48:22.655Z,4.85
2023-04-21T17:50:50.635Z,4.75
2023-04-21T17:53:18.895Z,6.60
2023-04-21T17:55:46.739Z,6.05
2023-04-21T17:58:14.678Z,6.53
2023-04-21T18:00:42.569Z,5.50
2023-04-21T18:03:11.943Z,4.65
2023-04-21T18:05:40.672Z,4.55
2023-04-21T18:08:08.761Z,8.23
2023-04-21T18:10:37.324Z,5.25
2023-04-21T18:13:06.128Z,5.90
2023-04-21T18:15:34.129Z,6.82
2023-04-21T18:18:02.120Z,7.47
2023-04-21T18:20:31.491Z,5.57
2023-04-21T18:22:59.500Z,5.20
2023-04-21T18:25:41.512Z,7.47
2023-04-21T18:28:12.399Z,6.03
2023-04-21T18:30:40.561Z,5.30
2023-04-21T18:33:08.523Z,10.07
2023-04-21T18:35:38.110Z,4.68
2023-04-21T18:38:08.006Z,8.37
2023-04-21T18:40:37.038Z,5.28
2023-04-21T18:43:05.256Z,5.65
2023-04-21T18:45:33.915Z,6.05
2023-04-21T18:48:01.921Z,6.25
2023-04-21T18:50:30.172Z,5.97
2023-04-21T18:52:59.926Z,8.30
2023-04-21T18:55:27.747Z,6.60
2023-04-21T18:57:55.609Z,10.27
2023-04-21T19:00:23.899Z,6.97
2023-04-21T19:02:52.116Z,5.13
2023-04-21T19:05:20.463Z,7.03
2023-04-21T19:07:48.510Z,8.55
2023-04-21T19:10:18.302Z,7.18
2023-04-21T19:12:46.099Z,9.35
2023-04-21T19:15:14.084Z,8.77
2023-04-21T19:17:42.179Z,7.20
2023-04-21T19:20:11.271Z,9.65
2023-04-21T19:22:39.302Z,4.88
2023-04-21T19:25:08.584Z,4.53
2023-04-21T19:27:38.136Z,6.22
2023-04-21T19:30:07.102Z,9.90
2023-04-21T19:32:35.094Z,7.85
2023-04-21T19:35:02.948Z,9.45
2023-04-21T19:37:33.532Z,11.25
2023-04-21T19:40:03.179Z,10.13
2023-04-21T19:42:31.525Z,8.50
2023-04-21T19:45:00.731Z,7.47
2023-04-21T19:47:28.494Z,10.95
2023-04-21T19:49:56.460Z,7.63
2023-04-21T19:52:24.336Z,14.07
2023-04-21T19:54:52.531Z,10.05
2023-04-21T19:57:20.564Z,8.38
2023-04-21T19:59:49.024Z,11.15
2023-04-21T20:02:19.457Z,7.55
2023-04-21T20:04:48.743Z,11.63
2023-04-21T20:07:17.473Z,9.07
2023-04-21T20:09:45.469Z,12.52
2023-04-21T20:12:13.263Z,9.63
2023-04-21T20:14:41.131Z,9.18
2023-04-21T20:17:08.982Z,6.50
2023-04-21T20:19:40.576Z,10.50
2023-04-21T20:22:08.672Z,10.48
2023-04-21T20:24:36.555Z,9.95
2023-04-21T20:27:07.190Z,13.02
2023-04-21T20:29:36.746Z,14.07
2023-04-21T20:32:04.816Z,13.65
2023-04-21T20:34:32.741Z,9.65
2023-04-21T20:37:03.830Z,8.77
2023-04-21T20:39:31.661Z,7.10
2023-04-21T20:42:11.926Z,11.13
2023-04-21T20:44:42.498Z,5.88
2023-04-21T20:47:11.465Z,6.78
2023-04-21T20:49:39.979Z,9.85
2023-04-21T20:52:09.695Z,6.72
2023-04-21T20:54:38.282Z,12.60
2023-04-21T20:57:07.337Z,7.03
2023-04-21T20:59:35.559Z,8.23
2023-04-21T21:02:03.625Z,5.85
2023-04-21T21:04:31.653Z,6.10
2023-04-21T21:06:59.781Z,6.72
2023-04-21T21:09:29.037Z,8.82
2023-04-21T21:11:56.862Z,6.60
2023-04-21T21:14:24.735Z,9.20
2023-04-21T21:16:54.507Z,5.95
2023-04-21T21:19:22.424Z,7.28
2023-04-21T21:21:50.155Z,7.57
2023-04-21T21:24:17.986Z,6.82
2023-04-21T21:26:47.132Z,9.65
2023-04-21T21:29:14.986Z,5.93
2023-04-21T21:31:43.207Z,3.75
2023-04-21T21:34:11.117Z,6.95
2023-04-21T21:36:38.906Z,8.43
2023-04-21T21:39:09.594Z,7.85
2023-04-21T21:41:38.932Z,6.72
2023-04-21T21:44:08.754Z,4.57
2023-04-21T21:46:36.759Z,8.10
2023-04-21T21:49:04.787Z,7.72
2023-04-21T21:51:32.698Z,6.72
2023-04-21T21:54:00.615Z,8.05
2023-04-21T21:56:28.587Z,10.82
2023-04-21T21:58:56.462Z,6.13
2023-04-21T22:01:25.882Z,7.65
2023-04-21T22:03:54.187Z,6.35
2023-04-21T22:06:24.382Z,5.65
2023-04-21T22:08:52.723Z,5.63
2023-04-21T22:11:20.806Z,7.70
2023-04-21T22:13:48.689Z,5.30
2023-04-21T22:16:16.909Z,5.90
2023-04-21T22:18:47.277Z,5.90
2023-04-21T22:23:42.745Z,9.52
2023-04-21T22:26:10.709Z,8.98
2023-04-21T22:28:38.553Z,5.50
2023-04-21T22:31:06.742Z,7.13
2023-04-21T22:33:34.664Z,6.72
2023-04-21T22:36:03.838Z,8.65
2023-04-21T22:38:31.713Z,9.68
2023-04-21T22:40:59.508Z,7.57
2023-04-21T22:43:27.448Z,8.50
2023-04-21T22:45:55.520Z,8.35
2023-04-21T22:48:26.163Z,7.45
2023-04-21T22:50:54.355Z,6.53
2023-04-21T22:53:23.583Z,5.78
2023-04-21T22:55:51.504Z,7.35
2023-04-21T22:58:19.900Z,7.55
2023-04-21T23:00:47.803Z,7.43
2023-04-21T23:03:16.028Z,7.35
2023-04-21T23:05:43.956Z,7.80
2023-04-21T23:08:11.848Z,6.00
2023-04-21T23:10:41.471Z,7.88
2023-04-21T23:13:09.622Z,7.78
2023-04-21T23:15:37.555Z,9.98
2023-04-21T23:18:05.559Z,6.22
2023-04-21T23:20:33.734Z,6.28
2023-04-21T23:23:01.615Z,6.05
2023-04-21T23:25:29.591Z,6.43
2023-04-21T23:27:58.752Z,5.25
2023-04-21T23:30:26.700Z,5.50
2023-04-21T23:32:54.820Z,8.98
2023-04-21T23:35:22.843Z,9.43
2023-04-21T23:37:50.576Z,6.18
2023-04-21T23:40:18.614Z,6.43
2023-04-21T23:42:47.475Z,5.78
2023-04-21T23:45:17.097Z,6.13
2023-04-21T23:47:45.541Z,9.10
2023-04-21T23:50:13.589Z,5.05
2023-04-21T23:52:42.109Z,6.65
2023-04-21T23:55:11.847Z,5.72
2023-04-21T23:57:39.833Z,7.10
